sensor_id;sensor_type;location;lat;lon;timestamp;pressure;altitude;pressure_sealevel;temperature;humidity
71476;BME280;59286;59.274;17.974;2022-12-26T00:00:36;101146.28;;;1.54;93.23
71476;BME280;59286;59.274;17.974;2022-12-26T00:03:02;101136.94;;;1.53;93.36
71476;BME280;59286;59.274;17.974;2022-12-26T00:05:27;101138.53;;;1.54;93.46
71476;BME280;59286;59.274;17.974;2022-12-26T00:07:53;101131.34;;;1.56;92.93
71476;BME280;59286;59.274;17.974;2022-12-26T00:10:18;101126.19;;;1.56;93.33
71476;BME280;59286;59.274;17.974;2022-12-26T00:12:43;101123.94;;;1.60;93.27
71476;BME280;59286;59.274;17.974;2022-12-26T00:15:09;101120.00;;;1.57;92.79
71476;BME280;59286;59.274;17.974;2022-12-26T00:17:34;101136.06;;;1.59;93.08
71476;BME280;59286;59.274;17.974;2022-12-26T00:19:59;101132.25;;;1.62;92.80
71476;BME280;59286;59.274;17.974;2022-12-26T00:22:25;101133.25;;;1.61;93.16
71476;BME280;59286;59.274;17.974;2022-12-26T00:24:50;101126.19;;;1.56;93.26
71476;BME280;59286;59.274;17.974;2022-12-26T00:27:16;101131.47;;;1.61;92.95
71476;BME280;59286;59.274;17.974;2022-12-26T00:29:41;101122.69;;;1.62;92.91
71476;BME280;59286;59.274;17.974;2022-12-26T00:32:06;101117.53;;;1.62;93.02
71476;BME280;59286;59.274;17.974;2022-12-26T00:34:31;101114.75;;;1.64;92.45
71476;BME280;59286;59.274;17.974;2022-12-26T00:36:57;101114.75;;;1.64;92.77
71476;BME280;59286;59.274;17.974;2022-12-26T00:39:22;101111.59;;;1.62;92.69
71476;BME280;59286;59.274;17.974;2022-12-26T00:41:47;101102.81;;;1.63;92.54
71476;BME280;59286;59.274;17.974;2022-12-26T00:44:13;101106.66;;;1.60;92.61
71476;BME280;59286;59.274;17.974;2022-12-26T00:46:38;101114.94;;;1.62;93.06
71476;BME280;59286;59.274;17.974;2022-12-26T00:49:04;101108.78;;;1.63;93.08
71476;BME280;59286;59.274;17.974;2022-12-26T00:51:30;101113.06;;;1.69;92.52
71476;BME280;59286;59.274;17.974;2022-12-26T00:53:55;101112.28;;;1.69;92.65
71476;BME280;59286;59.274;17.974;2022-12-26T00:56:20;101116.22;;;1.71;92.82
71476;BME280;59286;59.274;17.974;2022-12-26T00:58:46;101112.94;;;1.76;92.28
71476;BME280;59286;59.274;17.974;2022-12-26T01:01:16;101101.16;;;1.68;92.57
71476;BME280;59286;59.274;17.974;2022-12-26T01:03:43;101105.31;;;1.69;92.87
71476;BME280;59286;59.274;17.974;2022-12-26T01:06:09;101089.47;;;1.66;92.95
71476;BME280;59286;59.274;17.974;2022-12-26T01:08:34;101093.41;;;1.68;92.25
71476;BME280;59286;59.274;17.974;2022-12-26T01:11:05;101092.28;;;1.76;92.56
71476;BME280;59286;59.274;17.974;2022-12-26T01:13:30;101078.91;;;1.67;93.03
71476;BME280;59286;59.274;17.974;2022-12-26T01:15:56;101078.47;;;1.70;93.40
71476;BME280;59286;59.274;17.974;2022-12-26T01:18:21;101064.88;;;1.63;93.13
71476;BME280;59286;59.274;17.974;2022-12-26T01:20:47;101073.97;;;1.77;93.31
71476;BME280;59286;59.274;17.974;2022-12-26T01:23:12;101058.91;;;1.74;93.52
71476;BME280;59286;59.274;17.974;2022-12-26T01:25:38;101068.03;;;1.77;93.82
71476;BME280;59286;59.274;17.974;2022-12-26T01:28:04;101052.63;;;1.70;93.75
71476;BME280;59286;59.274;17.974;2022-12-26T01:30:29;101062.53;;;1.73;93.96
71476;BME280;59286;59.274;17.974;2022-12-26T01:32:55;101063.44;;;1.79;94.31
71476;BME280;59286;59.274;17.974;2022-12-26T01:35:21;101064.75;;;1.81;94.37
71476;BME280;59286;59.274;17.974;2022-12-26T01:37:46;101060.63;;;1.80;94.64
71476;BME280;59286;59.274;17.974;2022-12-26T01:40:12;101061.75;;;1.84;94.80
71476;BME280;59286;59.274;17.974;2022-12-26T01:42:39;101050.84;;;1.82;94.91
71476;BME280;59286;59.274;17.974;2022-12-26T01:45:27;101064.09;;;1.86;95.61
71476;BME280;59286;59.274;17.974;2022-12-26T01:48:09;101048.91;;;1.89;95.48
71476;BME280;59286;59.274;17.974;2022-12-26T01:50:55;101048.22;;;1.94;95.49
71476;BME280;59286;59.274;17.974;2022-12-26T01:53:26;101046.00;;;1.86;95.91
71476;BME280;59286;59.274;17.974;2022-12-26T01:56:00;101030.59;;;1.79;96.43
71476;BME280;59286;59.274;17.974;2022-12-26T01:58:32;101040.03;;;1.85;96.44
71476;BME280;59286;59.274;17.974;2022-12-26T02:01:01;101043.53;;;1.91;96.59
71476;BME280;59286;59.274;17.974;2022-12-26T02:03:28;101028.91;;;1.85;97.02
71476;BME280;59286;59.274;17.974;2022-12-26T02:06:13;101032.19;;;1.92;96.51
71476;BME280;59286;59.274;17.974;2022-12-26T02:08:39;101035.22;;;1.89;97.08
71476;BME280;59286;59.274;17.974;2022-12-26T02:11:11;101037.56;;;1.90;97.07
71476;BME280;59286;59.274;17.974;2022-12-26T02:13:38;101024.06;;;1.88;97.57
71476;BME280;59286;59.274;17.974;2022-12-26T02:16:06;101006.53;;;1.90;97.19
71476;BME280;59286;59.274;17.974;2022-12-26T02:18:31;101007.00;;;1.87;97.71
71476;BME280;59286;59.274;17.974;2022-12-26T02:21:24;101011.59;;;1.97;97.09
71476;BME280;59286;59.274;17.974;2022-12-26T02:24:16;101011.03;;;1.95;97.06
71476;BME280;59286;59.274;17.974;2022-12-26T02:35:24;100990.03;;;1.91;96.91
71476;BME280;59286;59.274;17.974;2022-12-26T02:43:59;100999.25;;;1.99;96.35
71476;BME280;59286;59.274;17.974;2022-12-26T02:47:01;100990.22;;;2.02;96.44
71476;BME280;59286;59.274;17.974;2022-12-26T02:49:51;100983.75;;;1.99;95.98
71476;BME280;59286;59.274;17.974;2022-12-26T02:55:29;100997.22;;;2.01;95.63
71476;BME280;59286;59.274;17.974;2022-12-26T02:58:22;100981.47;;;2.03;96.02
71476;BME280;59286;59.274;17.974;2022-12-26T03:01:18;100980.81;;;1.95;96.19
71476;BME280;59286;59.274;17.974;2022-12-26T03:04:08;100974.16;;;1.99;96.25
71476;BME280;59286;59.274;17.974;2022-12-26T03:06:59;100975.75;;;2.01;96.22
71476;BME280;59286;59.274;17.974;2022-12-26T03:09:45;100966.09;;;1.96;96.39
71476;BME280;59286;59.274;17.974;2022-12-26T03:12:38;100966.88;;;1.96;96.33
71476;BME280;59286;59.274;17.974;2022-12-26T03:15:25;100964.75;;;1.93;97.01
71476;BME280;59286;59.274;17.974;2022-12-26T03:17:56;100960.50;;;1.87;97.12
71476;BME280;59286;59.274;17.974;2022-12-26T03:20:27;100970.16;;;1.92;96.85
71476;BME280;59286;59.274;17.974;2022-12-26T03:23:02;100975.31;;;1.92;96.77
71476;BME280;59286;59.274;17.974;2022-12-26T03:28:20;100959.47;;;1.88;97.24
71476;BME280;59286;59.274;17.974;2022-12-26T03:30:46;100967.44;;;1.87;97.35
71476;BME280;59286;59.274;17.974;2022-12-26T03:33:17;100961.97;;;1.83;97.52
71476;BME280;59286;59.274;17.974;2022-12-26T03:36:04;100957.44;;;1.90;97.92
71476;BME280;59286;59.274;17.974;2022-12-26T03:38:47;100944.31;;;1.92;97.68
71476;BME280;59286;59.274;17.974;2022-12-26T03:41:42;100950.25;;;1.92;98.01
71476;BME280;59286;59.274;17.974;2022-12-26T03:47:27;100943.63;;;1.96;97.94
71476;BME280;59286;59.274;17.974;2022-12-26T03:50:32;100934.84;;;1.98;97.92
71476;BME280;59286;59.274;17.974;2022-12-26T03:53:34;100930.38;;;1.93;97.95
71476;BME280;59286;59.274;17.974;2022-12-26T03:56:33;100941.34;;;2.00;98.13
71476;BME280;59286;59.274;17.974;2022-12-26T03:59:42;100929.47;;;1.99;98.22
71476;BME280;59286;59.274;17.974;2022-12-26T04:02:28;100936.41;;;1.98;98.02
71476;BME280;59286;59.274;17.974;2022-12-26T04:05:13;100935.38;;;1.99;98.34
71476;BME280;59286;59.274;17.974;2022-12-26T04:08:01;100928.34;;;1.95;98.19
71476;BME280;59286;59.274;17.974;2022-12-26T04:10:51;100933.03;;;1.98;98.38
71476;BME280;59286;59.274;17.974;2022-12-26T04:13:53;100935.94;;;2.02;98.40
71476;BME280;59286;59.274;17.974;2022-12-26T04:16:43;100911.81;;;1.96;98.57
71476;BME280;59286;59.274;17.974;2022-12-26T04:22:08;100921.94;;;1.98;98.66
71476;BME280;59286;59.274;17.974;2022-12-26T04:25:10;100909.44;;;1.94;98.47
71476;BME280;59286;59.274;17.974;2022-12-26T04:27:56;100919.88;;;1.99;98.41
71476;BME280;59286;59.274;17.974;2022-12-26T04:30:40;100928.66;;;1.98;98.73
71476;BME280;59286;59.274;17.974;2022-12-26T04:33:41;100921.94;;;1.98;98.79
71476;BME280;59286;59.274;17.974;2022-12-26T04:36:32;100914.50;;;2.01;98.48
71476;BME280;59286;59.274;17.974;2022-12-26T04:39:22;100913.38;;;1.97;98.98
71476;BME280;59286;59.274;17.974;2022-12-26T04:42:11;100889.69;;;1.88;98.88
71476;BME280;59286;59.274;17.974;2022-12-26T04:44:55;100910.09;;;2.02;98.72
71476;BME280;59286;59.274;17.974;2022-12-26T04:47:21;100909.00;;;1.98;98.84
71476;BME280;59286;59.274;17.974;2022-12-26T04:49:47;100907.66;;;1.95;98.46
71476;BME280;59286;59.274;17.974;2022-12-26T04:52:31;100892.16;;;1.95;98.68
71476;BME280;59286;59.274;17.974;2022-12-26T04:55:16;100908.22;;;1.97;98.82
71476;BME280;59286;59.274;17.974;2022-12-26T04:57:41;100898.69;;;1.98;98.95
71476;BME280;59286;59.274;17.974;2022-12-26T05:00:08;100905.41;;;1.98;98.66
71476;BME280;59286;59.274;17.974;2022-12-26T05:02:33;100898.22;;;2.01;98.24
71476;BME280;59286;59.274;17.974;2022-12-26T05:05:18;100888.34;;;1.98;98.37
71476;BME280;59286;59.274;17.974;2022-12-26T05:08:01;100893.03;;;2.01;98.23
71476;BME280;59286;59.274;17.974;2022-12-26T05:10:45;100883.69;;;1.99;98.19
71476;BME280;59286;59.274;17.974;2022-12-26T05:13:11;100871.88;;;2.04;97.67
71476;BME280;59286;59.274;17.974;2022-12-26T05:15:36;100881.31;;;2.10;97.27
71476;BME280;59286;59.274;17.974;2022-12-26T05:18:22;100871.13;;;2.03;97.25
71476;BME280;59286;59.274;17.974;2022-12-26T05:21:13;100858.97;;;2.04;97.00
71476;BME280;59286;59.274;17.974;2022-12-26T05:23:59;100866.28;;;2.07;97.01
71476;BME280;59286;59.274;17.974;2022-12-26T05:26:43;100868.63;;;2.08;97.09
71476;BME280;59286;59.274;17.974;2022-12-26T05:29:27;100860.63;;;2.10;96.35
71476;BME280;59286;59.274;17.974;2022-12-26T05:31:53;100869.97;;;2.11;96.57
71476;BME280;59286;59.274;17.974;2022-12-26T05:34:18;100860.16;;;2.13;96.64
71476;BME280;59286;59.274;17.974;2022-12-26T05:36:49;100875.22;;;2.16;96.86
71476;BME280;59286;59.274;17.974;2022-12-26T05:39:15;100862.22;;;2.11;96.56
71476;BME280;59286;59.274;17.974;2022-12-26T05:41:41;100860.38;;;2.11;96.46
71476;BME280;59286;59.274;17.974;2022-12-26T05:44:07;100862.53;;;2.14;96.48
71476;BME280;59286;59.274;17.974;2022-12-26T05:46:33;100861.25;;;2.17;96.56
71476;BME280;59286;59.274;17.974;2022-12-26T05:48:59;100873.97;;;2.18;96.50
71476;BME280;59286;59.274;17.974;2022-12-26T05:51:25;100869.56;;;2.19;97.39
71476;BME280;59286;59.274;17.974;2022-12-26T05:53:51;100864.09;;;2.15;97.29
71476;BME280;59286;59.274;17.974;2022-12-26T05:56:17;100865.31;;;2.13;97.17
71476;BME280;59286;59.274;17.974;2022-12-26T05:58:43;100856.81;;;2.12;97.50
71476;BME280;59286;59.274;17.974;2022-12-26T06:01:11;100849.59;;;2.14;97.40
71476;BME280;59286;59.274;17.974;2022-12-26T06:03:38;100851.72;;;2.17;97.62
71476;BME280;59286;59.274;17.974;2022-12-26T06:06:05;100845.44;;;2.13;97.89
71476;BME280;59286;59.274;17.974;2022-12-26T06:08:31;100843.63;;;2.14;97.86
71476;BME280;59286;59.274;17.974;2022-12-26T06:10:56;100843.16;;;2.17;97.93
71476;BME280;59286;59.274;17.974;2022-12-26T06:13:22;100844.75;;;2.18;98.25
71476;BME280;59286;59.274;17.974;2022-12-26T06:15:47;100828.69;;;2.16;98.33
71476;BME280;59286;59.274;17.974;2022-12-26T06:18:12;100836.75;;;2.19;98.21
71476;BME280;59286;59.274;17.974;2022-12-26T06:20:38;100831.81;;;2.18;98.76
71476;BME280;59286;59.274;17.974;2022-12-26T06:23:04;100833.69;;;2.22;98.66
71476;BME280;59286;59.274;17.974;2022-12-26T06:25:29;100816.63;;;2.21;98.79
71476;BME280;59286;59.274;17.974;2022-12-26T06:27:54;100812.94;;;2.17;98.37
71476;BME280;59286;59.274;17.974;2022-12-26T06:30:20;100819.22;;;2.21;98.47
71476;BME280;59286;59.274;17.974;2022-12-26T06:32:45;100823.59;;;2.21;98.47
71476;BME280;59286;59.274;17.974;2022-12-26T06:35:10;100822.34;;;2.23;98.58
71476;BME280;59286;59.274;17.974;2022-12-26T06:37:36;100811.94;;;2.18;98.52
71476;BME280;59286;59.274;17.974;2022-12-26T06:40:02;100820.06;;;2.27;98.48
71476;BME280;59286;59.274;17.974;2022-12-26T06:42:28;100819.84;;;2.28;98.24
71476;BME280;59286;59.274;17.974;2022-12-26T06:44:53;100815.91;;;2.26;98.08
71476;BME280;59286;59.274;17.974;2022-12-26T06:47:18;100815.22;;;2.30;98.00
71476;BME280;59286;59.274;17.974;2022-12-26T06:49:44;100809.34;;;2.35;98.18
71476;BME280;59286;59.274;17.974;2022-12-26T06:52:09;100800.50;;;2.31;98.03
71476;BME280;59286;59.274;17.974;2022-12-26T06:54:36;100801.28;;;2.31;97.62
71476;BME280;59286;59.274;17.974;2022-12-26T06:57:01;100800.00;;;2.34;97.44
71476;BME280;59286;59.274;17.974;2022-12-26T06:59:26;100799.09;;;2.40;97.33
71476;BME280;59286;59.274;17.974;2022-12-26T07:01:52;100799.09;;;2.40;97.34
71476;BME280;59286;59.274;17.974;2022-12-26T07:04:17;100795.47;;;2.41;97.37
71476;BME280;59286;59.274;17.974;2022-12-26T07:06:42;100796.56;;;2.45;97.12
71476;BME280;59286;59.274;17.974;2022-12-26T07:09:12;100791.69;;;2.48;97.40
71476;BME280;59286;59.274;17.974;2022-12-26T07:11:40;100784.91;;;2.42;97.62
71476;BME280;59286;59.274;17.974;2022-12-26T07:14:06;100789.66;;;2.50;97.40
71476;BME280;59286;59.274;17.974;2022-12-26T07:16:36;100790.47;;;2.51;97.60
71476;BME280;59286;59.274;17.974;2022-12-26T07:19:02;100785.03;;;2.52;97.28
71476;BME280;59286;59.274;17.974;2022-12-26T07:21:27;100783.47;;;2.51;97.49
71476;BME280;59286;59.274;17.974;2022-12-26T07:23:54;100778.06;;;2.53;97.55
71476;BME280;59286;59.274;17.974;2022-12-26T07:26:21;100780.59;;;2.48;97.70
71476;BME280;59286;59.274;17.974;2022-12-26T07:28:46;100776.50;;;2.52;97.80
71476;BME280;59286;59.274;17.974;2022-12-26T07:31:16;100784.66;;;2.60;97.87
71476;BME280;59286;59.274;17.974;2022-12-26T07:33:41;100782.63;;;2.62;97.78
71476;BME280;59286;59.274;17.974;2022-12-26T07:36:07;100773.75;;;2.58;97.75
71476;BME280;59286;59.274;17.974;2022-12-26T07:38:32;100774.06;;;2.62;97.71
71476;BME280;59286;59.274;17.974;2022-12-26T07:40:58;100777.75;;;2.66;97.41
71476;BME280;59286;59.274;17.974;2022-12-26T07:43:24;100778.53;;;2.66;97.85
71476;BME280;59286;59.274;17.974;2022-12-26T07:45:51;100782.91;;;2.66;98.38
71476;BME280;59286;59.274;17.974;2022-12-26T07:48:16;100774.59;;;2.64;98.38
71476;BME280;59286;59.274;17.974;2022-12-26T07:50:42;100783.72;;;2.66;98.33
71476;BME280;59286;59.274;17.974;2022-12-26T07:53:14;100775.16;;;2.66;98.29
71476;BME280;59286;59.274;17.974;2022-12-26T07:55:39;100774.66;;;2.69;98.48
71476;BME280;59286;59.274;17.974;2022-12-26T07:58:04;100770.59;;;2.73;98.88
71476;BME280;59286;59.274;17.974;2022-12-26T08:00:30;100760.97;;;2.68;99.11
71476;BME280;59286;59.274;17.974;2022-12-26T08:02:55;100760.97;;;2.68;99.20
71476;BME280;59286;59.274;17.974;2022-12-26T08:05:20;100755.00;;;2.68;99.06
71476;BME280;59286;59.274;17.974;2022-12-26T08:07:47;100767.22;;;2.72;99.39
71476;BME280;59286;59.274;17.974;2022-12-26T08:10:13;100773.19;;;2.73;99.76
71476;BME280;59286;59.274;17.974;2022-12-26T08:12:38;100756.31;;;2.70;99.77
71476;BME280;59286;59.274;17.974;2022-12-26T08:15:04;100757.97;;;2.76;99.57
71476;BME280;59286;59.274;17.974;2022-12-26T08:17:29;100753.28;;;2.73;99.54
71476;BME280;59286;59.274;17.974;2022-12-26T08:19:57;100759.84;;;2.81;99.51
71476;BME280;59286;59.274;17.974;2022-12-26T08:22:22;100761.41;;;2.82;99.38
71476;BME280;59286;59.274;17.974;2022-12-26T08:24:48;100762.19;;;2.82;99.59
71476;BME280;59286;59.274;17.974;2022-12-26T08:27:13;100757.25;;;2.81;99.57
71476;BME280;59286;59.274;17.974;2022-12-26T08:29:38;100751.03;;;2.82;98.99
71476;BME280;59286;59.274;17.974;2022-12-26T08:32:04;100754.72;;;2.86;99.12
71476;BME280;59286;59.274;17.974;2022-12-26T08:34:33;100759.19;;;2.90;98.99
71476;BME280;59286;59.274;17.974;2022-12-26T08:36:59;100754.25;;;2.89;99.13
71476;BME280;59286;59.274;17.974;2022-12-26T08:39:24;100743.38;;;2.87;99.40
71476;BME280;59286;59.274;17.974;2022-12-26T08:41:49;100743.41;;;2.92;99.06
71476;BME280;59286;59.274;17.974;2022-12-26T08:44:15;100745.22;;;2.91;99.23
71476;BME280;59286;59.274;17.974;2022-12-26T08:46:42;100742.94;;;2.95;99.53
71476;BME280;59286;59.274;17.974;2022-12-26T08:49:07;100741.84;;;2.91;99.58
71476;BME280;59286;59.274;17.974;2022-12-26T08:51:33;100755.88;;;2.95;100.00
71476;BME280;59286;59.274;17.974;2022-12-26T08:53:58;100754.63;;;2.97;100.00
71476;BME280;59286;59.274;17.974;2022-12-26T08:56:25;100740.84;;;2.92;100.00
71476;BME280;59286;59.274;17.974;2022-12-26T08:58:51;100749.38;;;2.92;100.00
71476;BME280;59286;59.274;17.974;2022-12-26T09:01:19;100750.69;;;2.95;100.00
71476;BME280;59286;59.274;17.974;2022-12-26T09:03:46;100733.78;;;2.87;100.00
71476;BME280;59286;59.274;17.974;2022-12-26T09:06:13;100733.56;;;2.89;99.89
71476;BME280;59286;59.274;17.974;2022-12-26T09:08:39;100732.31;;;2.96;99.76
71476;BME280;59286;59.274;17.974;2022-12-26T09:11:21;100735.16;;;2.95;99.62
71476;BME280;59286;59.274;17.974;2022-12-26T09:13:47;100723.19;;;2.89;99.44
71476;BME280;59286;59.274;17.974;2022-12-26T09:16:18;100723.97;;;2.89;99.28
71476;BME280;59286;59.274;17.974;2022-12-26T09:18:44;100713.56;;;2.84;100.00
71476;BME280;59286;59.274;17.974;2022-12-26T09:21:11;100700.25;;;2.76;100.00
71476;BME280;59286;59.274;17.974;2022-12-26T09:23:37;100709.09;;;2.80;100.00
71476;BME280;59286;59.274;17.974;2022-12-26T09:26:12;100705.44;;;2.76;100.00
71476;BME280;59286;59.274;17.974;2022-12-26T09:28:38;100697.88;;;2.74;100.00
71476;BME280;59286;59.274;17.974;2022-12-26T09:31:07;100699.47;;;2.75;100.00
71476;BME280;59286;59.274;17.974;2022-12-26T09:33:34;100698.44;;;2.76;100.00
71476;BME280;59286;59.274;17.974;2022-12-26T09:36:04;100699.47;;;2.75;100.00
71476;BME280;59286;59.274;17.974;2022-12-26T09:38:31;100695.59;;;2.78;100.00
71476;BME280;59286;59.274;17.974;2022-12-26T09:41:15;100689.91;;;2.76;100.00
71476;BME280;59286;59.274;17.974;2022-12-26T09:46:37;100686.81;;;2.79;100.00
71476;BME280;59286;59.274;17.974;2022-12-26T09:49:14;100680.63;;;2.80;100.00
71476;BME280;59286;59.274;17.974;2022-12-26T09:51:42;100677.03;;;2.81;100.00
71476;BME280;59286;59.274;17.974;2022-12-26T09:54:19;100672.84;;;2.80;100.00
71476;BME280;59286;59.274;17.974;2022-12-26T09:56:46;100659.63;;;2.76;100.00
71476;BME280;59286;59.274;17.974;2022-12-26T09:59:18;100649.75;;;2.73;100.00
71476;BME280;59286;59.274;17.974;2022-12-26T10:01:44;100650.06;;;2.77;100.00
71476;BME280;59286;59.274;17.974;2022-12-26T10:04:20;100640.28;;;2.84;100.00
71476;BME280;59286;59.274;17.974;2022-12-26T10:07:34;100632.00;;;2.82;100.00
71476;BME280;59286;59.274;17.974;2022-12-26T10:10:18;100653.00;;;2.85;100.00
71476;BME280;59286;59.274;17.974;2022-12-26T10:12:52;100654.28;;;2.83;100.00
71476;BME280;59286;59.274;17.974;2022-12-26T10:18:15;100653.78;;;2.86;100.00
71476;BME280;59286;59.274;17.974;2022-12-26T10:23:36;100641.34;;;2.83;100.00
71476;BME280;59286;59.274;17.974;2022-12-26T10:26:23;100637.94;;;2.82;100.00
71476;BME280;59286;59.274;17.974;2022-12-26T10:29:03;100630.19;;;2.82;100.00
71476;BME280;59286;59.274;17.974;2022-12-26T10:31:45;100624.78;;;2.84;100.00
71476;BME280;59286;59.274;17.974;2022-12-26T10:34:17;100611.34;;;2.87;100.00
71476;BME280;59286;59.274;17.974;2022-12-26T10:36:47;100616.03;;;2.90;100.00
71476;BME280;59286;59.274;17.974;2022-12-26T10:39:29;100612.97;;;2.93;100.00
71476;BME280;59286;59.274;17.974;2022-12-26T10:42:01;100607.78;;;2.93;100.00
71476;BME280;59286;59.274;17.974;2022-12-26T10:44:27;100601.22;;;2.85;100.00
71476;BME280;59286;59.274;17.974;2022-12-26T10:49:23;100597.91;;;2.90;100.00
71476;BME280;59286;59.274;17.974;2022-12-26T10:51:50;100599.78;;;2.94;100.00
71476;BME280;59286;59.274;17.974;2022-12-26T10:54:17;100595.09;;;2.91;100.00
71476;BME280;59286;59.274;17.974;2022-12-26T10:56:44;100592.53;;;2.96;100.00
71476;BME280;59286;59.274;17.974;2022-12-26T10:59:14;100591.78;;;2.96;100.00
71476;BME280;59286;59.274;17.974;2022-12-26T11:01:41;100584.47;;;2.93;100.00
71476;BME280;59286;59.274;17.974;2022-12-26T11:06:42;100585.81;;;2.95;100.00
71476;BME280;59286;59.274;17.974;2022-12-26T11:09:37;100579.84;;;2.95;100.00
71476;BME280;59286;59.274;17.974;2022-12-26T11:12:04;100568.72;;;2.94;100.00
71476;BME280;59286;59.274;17.974;2022-12-26T11:14:42;100574.75;;;3.00;100.00
71476;BME280;59286;59.274;17.974;2022-12-26T11:17:23;100579.13;;;3.00;100.00
71476;BME280;59286;59.274;17.974;2022-12-26T11:19:51;100567.41;;;2.92;100.00
71476;BME280;59286;59.274;17.974;2022-12-26T11:22:32;100562.25;;;2.97;100.00
71476;BME280;59286;59.274;17.974;2022-12-26T11:27:34;100563.56;;;2.94;100.00
71476;BME280;59286;59.274;17.974;2022-12-26T11:30:20;100558.38;;;2.94;100.00
71476;BME280;59286;59.274;17.974;2022-12-26T11:32:49;100561.25;;;2.98;100.00
71476;BME280;59286;59.274;17.974;2022-12-26T11:35:21;100553.97;;;2.95;100.00
71476;BME280;59286;59.274;17.974;2022-12-26T11:37:53;100552.13;;;2.90;100.00
71476;BME280;59286;59.274;17.974;2022-12-26T11:40:24;100536.31;;;2.87;100.00
71476;BME280;59286;59.274;17.974;2022-12-26T11:42:55;100551.38;;;2.95;99.67
71476;BME280;59286;59.274;17.974;2022-12-26T11:45:25;100555.28;;;2.97;99.94
71476;BME280;59286;59.274;17.974;2022-12-26T11:47:54;100548.19;;;2.88;99.94
71476;BME280;59286;59.274;17.974;2022-12-26T11:50:22;100550.06;;;2.92;100.00
71476;BME280;59286;59.274;17.974;2022-12-26T11:53:04;100550.63;;;2.94;99.98
71476;BME280;59286;59.274;17.974;2022-12-26T12:00:35;100529.06;;;2.89;99.64
71476;BME280;59286;59.274;17.974;2022-12-26T12:03:01;100529.13;;;2.94;99.35
71476;BME280;59286;59.274;17.974;2022-12-26T12:05:37;100521.88;;;2.96;99.44
71476;BME280;59286;59.274;17.974;2022-12-26T12:08:20;100509.66;;;2.91;99.18
71476;BME280;59286;59.274;17.974;2022-12-26T12:16:38;100507.88;;;2.92;99.36
71476;BME280;59286;59.274;17.974;2022-12-26T12:33:15;100458.69;;;2.92;98.94
71476;BME280;59286;59.274;17.974;2022-12-26T12:38:34;100458.34;;;2.83;99.60
71476;BME280;59286;59.274;17.974;2022-12-26T12:41:20;100450.56;;;2.83;99.60
71476;BME280;59286;59.274;17.974;2022-12-26T12:44:12;100436.38;;;2.86;99.54
71476;BME280;59286;59.274;17.974;2022-12-26T13:00:21;100414.88;;;2.85;98.96
71476;BME280;59286;59.274;17.974;2022-12-26T13:03:03;100412.00;;;2.82;99.01
71476;BME280;59286;59.274;17.974;2022-12-26T13:05:44;100416.16;;;2.83;99.13
71476;BME280;59286;59.274;17.974;2022-12-26T13:08:42;100409.41;;;2.82;99.08
71476;BME280;59286;59.274;17.974;2022-12-26T13:11:19;100402.19;;;2.84;98.73
71476;BME280;59286;59.274;17.974;2022-12-26T13:13:51;100400.69;;;2.88;98.25
71476;BME280;59286;59.274;17.974;2022-12-26T13:16:22;100398.31;;;2.81;98.58
71476;BME280;59286;59.274;17.974;2022-12-26T13:18:51;100393.13;;;2.81;98.28
71476;BME280;59286;59.274;17.974;2022-12-26T13:21:19;100389.75;;;2.81;98.39
71476;BME280;59286;59.274;17.974;2022-12-26T13:26:38;100387.66;;;2.78;98.73
71476;BME280;59286;59.274;17.974;2022-12-26T13:29:12;100393.63;;;2.78;98.52
71476;BME280;59286;59.274;17.974;2022-12-26T13:31:39;100399.81;;;2.77;98.50
71476;BME280;59286;59.274;17.974;2022-12-26T13:34:13;100399.03;;;2.77;98.36
71476;BME280;59286;59.274;17.974;2022-12-26T13:36:43;100392.34;;;2.81;98.06
71476;BME280;59286;59.274;17.974;2022-12-26T13:41:45;100392.31;;;2.76;98.36
71476;BME280;59286;59.274;17.974;2022-12-26T13:44:31;100379.06;;;2.72;98.31
71476;BME280;59286;59.274;17.974;2022-12-26T13:46:58;100382.19;;;2.74;98.26
71476;BME280;59286;59.274;17.974;2022-12-26T13:52:22;100364.56;;;2.66;98.16
71476;BME280;59286;59.274;17.974;2022-12-26T14:00:00;100373.91;;;2.72;98.03
71476;BME280;59286;59.274;17.974;2022-12-26T14:10:47;100356.25;;;2.64;97.49
71476;BME280;59286;59.274;17.974;2022-12-26T14:18:55;100341.22;;;2.61;97.02
71476;BME280;59286;59.274;17.974;2022-12-26T14:22:00;100347.44;;;2.60;97.11
71476;BME280;59286;59.274;17.974;2022-12-26T14:27:41;100333.72;;;2.60;96.76
71476;BME280;59286;59.274;17.974;2022-12-26T14:30:30;100323.34;;;2.55;96.82
71476;BME280;59286;59.274;17.974;2022-12-26T14:33:26;100320.47;;;2.51;96.89
71476;BME280;59286;59.274;17.974;2022-12-26T14:36:41;100320.19;;;2.48;97.22
71476;BME280;59286;59.274;17.974;2022-12-26T14:40:05;100319.13;;;2.49;97.29
71476;BME280;59286;59.274;17.974;2022-12-26T14:42:17;100310.31;;;2.45;97.22
71476;BME280;59286;59.274;17.974;2022-12-26T14:45:12;100320.19;;;2.48;97.37
71476;BME280;59286;59.274;17.974;2022-12-26T14:47:55;100315.00;;;2.48;96.96
71476;BME280;59286;59.274;17.974;2022-12-26T14:50:34;100318.13;;;2.50;97.07
71476;BME280;59286;59.274;17.974;2022-12-26T14:58:36;100319.59;;;2.41;97.16
71476;BME280;59286;59.274;17.974;2022-12-26T15:08:56;100306.06;;;2.29;97.86
71476;BME280;59286;59.274;17.974;2022-12-26T15:19:48;100288.16;;;2.22;98.47
71476;BME280;59286;59.274;17.974;2022-12-26T15:22:29;100275.22;;;2.22;98.07
71476;BME280;59286;59.274;17.974;2022-12-26T15:30:22;100258.88;;;2.12;98.73
71476;BME280;59286;59.274;17.974;2022-12-26T15:33:00;100264.56;;;2.14;98.66
71476;BME280;59286;59.274;17.974;2022-12-26T15:35:33;100253.69;;;2.12;98.73
71476;BME280;59286;59.274;17.974;2022-12-26T15:38:31;100257.78;;;2.08;98.93